Observations for BENSON RAF, United Kingdom (EGUB)

EGUB 280450Z 01006KT 4000 BR OVC003 14/14 Q0998 YLO2
EGUB 280350Z 03007KT 4000 BR OVC004 14/14 Q0999 YLO2
EGUB 280250Z 01005KT 5000 BR OVC004 14/14 Q0999 YLO2
EGUB 280150Z 02005KT 4000 -DZ OVC004 14/14 Q0999 YLO2   
EGUB 280050Z AUTO 01004KT 3200 // SCT004/// BKN014/// BKN050/// 14/14 Q1000 
EGUB 272350Z AUTO 01003KT 2700 // FEW007/// BKN047/// 15/14 Q1001   
EGUB 272250Z 01003KT 4000 RA BKN007 OVC050 15/14 Q1002 GRN  
EGUB 272150Z 04003KT 4000 RA SCT007 OVC017 15/15 Q1002 GRN TEMPO SCT006 YLO1
EGUB 272050Z 06005KT 4000 RA FEW008 BKN016 OVC060 16/15 Q1002 GRN TEMPO SCT008 GRN  
EGUB 271950Z 04004KT 4000 RA FEW008 BKN018 OVC030 16/15 Q1003 GRN TEMPO SCT008 GRN  
EGUB 271850Z 06005KT 5000 -RA BKN008 OVC018 17/16 Q1003 GRN TEMPO 4000 SCT006 YLO1  
EGUB 271818Z 05004KT 5000 -RA BKN009 OVC018 17/16 Q1003 GRN TEMPO 4000 RA GRN
EGUB 271750Z 06005KT 6000 -RA FEW020 OVC027 17/16 Q1003 WHT TEMPO BKN020 WHT
EGUB 271650Z 10009KT 5000 RA BKN050 OVC070 17/16 Q1003 WHT TEMPO BKN022 WHT 
EGUB 271634Z 09009KT 5000 RA BKN023 17/16 Q1004 WHT TEMPO 9999 -RA WHT
EGUB 271550Z 09008KT 9999 -RA BKN023 18/16 Q1004 WHT TEMPO 6000 RA WHT  
EGUB 271450Z 15005KT 9999 -SHRA BKN030 SCT070 20/14 Q1004 BLU TEMPO 7000 SHRA SCT022 WHT
EGUB 271350Z 12004KT 9999 -SHRA BKN034 BKN070 21/13 Q1005 BLU TEMPO 7000 SHRA BKN022 WHT
EGUB 271250Z 10004KT 9999 SCT032 BKN040 21/12 Q1005 BLU BECMG 7000 -RA SCT024   
EGUB 271150Z 15005KT 9999 BKN040 BKN050 21/12 Q1006 BLU NOSIG   
EGUB 271050Z 16006KT 9999 BKN042 BKN050 20/12 Q1006 BLU NOSIG   
EGUB 270950Z 09008KT 9999 BKN044 19/10 Q1007 BLU NOSIG  
EGUB 270850Z 15007KT 9999 BKN046 18/08 Q1007 BLU NOSIG  
EGUB 270750Z 10007KT 9999 SCT048 BKN100 BKN250 18/07 Q1007 BLU NOSIG
EGUB 270650Z 08004KT 9999 FEW048 SCT080 BKN250 17/08 Q1008 BLU NOSIG
EGUB 270550Z 06003KT 9999 BKN042 BKN080 16/10 Q1008 BLU NOSIG   
EGUB 270450Z 09002KT 9999 BKN040 OVC060 15/09 Q1009 BLU NOSIG